Time;durP1;ratioP1;P1;durP2;ratioP2;P2;SDS_P1;SDS_P2;PMS_P1;PMS_P2;Temp;Humidity;BMP_temperature;BMP_pressure;BME280_temperature;BME280_humidity;BME280_pressure;Samples;Min_cycle;Max_cycle;Signal;HPM_P1;HPM_P2
2023/01/07 00:01:17;;;;;;;12.50;8.70;;;;;;;;;;5026562;28;20207;-79
2023/01/07 00:03:43;;;;;;;10.48;8.18;;;;;;;;;;5026782;28;20580;-80
2023/01/07 00:06:10;;;;;;;10.93;7.90;;;;;;;;;;5029486;28;20177;-79
2023/01/07 00:08:37;;;;;;;10.70;7.83;;;;;;;;;;5023103;28;20216;-80
2023/01/07 00:11:03;;;;;;;10.20;8.10;;;;;;;;;;5026182;28;20215;-79
2023/01/07 00:13:29;;;;;;;8.23;7.10;;;;;;;;;;5026656;28;20227;-77
2023/01/07 00:15:58;;;;;;;9.00;7.90;;;;;;;;;;5030966;28;20206;-77
2023/01/07 00:18:23;;;;;;;9.43;7.17;;;;;;;;;;5028660;28;20189;-77
2023/01/07 00:20:48;;;;;;;8.15;6.97;;;;;;;;;;5024453;28;20167;-78
2023/01/07 00:23:14;;;;;;;7.70;7.00;;;;;;;;;;5031648;28;20744;-78
2023/01/07 00:25:39;;;;;;;8.68;7.13;;;;;;;;;;5030072;28;20170;-78
2023/01/07 00:28:04;;;;;;;8.47;6.87;;;;;;;;;;5036165;28;20177;-77
2023/01/07 00:30:30;;;;;;;7.73;6.97;;;;;;;;;;5032830;28;20183;-77
2023/01/07 00:33:05;;;;;;;11.07;7.47;;;;;;;;;;5026551;28;20190;-78
2023/01/07 00:35:35;;;;;;;7.47;6.40;;;;;;;;;;5028789;28;20534;-78
2023/01/07 00:38:01;;;;;;;7.30;6.30;;;;;;;;;;5026432;28;20638;-79
2023/01/07 00:40:28;;;;;;;8.07;6.70;;;;;;;;;;5030432;28;20261;-79
2023/01/07 00:42:54;;;;;;;7.90;7.10;;;;;;;;;;5028644;28;20671;-79
2023/01/07 00:45:22;;;;;;;7.83;6.80;;;;;;;;;;5029888;28;20252;-77
2023/01/07 00:47:47;;;;;;;8.47;6.40;;;;;;;;;;5032050;28;20179;-79
2023/01/07 00:50:13;;;;;;;6.47;5.73;;;;;;;;;;5025279;28;20666;-78
2023/01/07 00:52:38;;;;;;;9.07;6.23;;;;;;;;;;5032581;28;20252;-79
2023/01/07 00:55:03;;;;;;;7.53;6.20;;;;;;;;;;5030078;28;20731;-79
2023/01/07 00:57:28;;;;;;;7.33;6.27;;;;;;;;;;5029575;28;20207;-79
2023/01/07 00:59:54;;;;;;;9.70;7.23;;;;;;;;;;5020045;28;20177;-79
2023/01/07 01:02:19;;;;;;;7.03;5.90;;;;;;;;;;5027556;28;20205;-79
2023/01/07 01:04:44;;;;;;;7.17;6.47;;;;;;;;;;5027206;28;20739;-79
2023/01/07 01:07:09;;;;;;;8.67;6.97;;;;;;;;;;5032794;28;20274;-79
2023/01/07 01:09:34;;;;;;;9.13;6.50;;;;;;;;;;5024695;28;20563;-79
2023/01/07 01:12:00;;;;;;;8.27;6.30;;;;;;;;;;5032540;28;20178;-79
2023/01/07 01:14:25;;;;;;;7.83;6.70;;;;;;;;;;5022356;28;20271;-79
2023/01/07 01:16:50;;;;;;;8.00;6.97;;;;;;;;;;5017905;28;20194;-79
2023/01/07 01:19:15;;;;;;;7.63;6.07;;;;;;;;;;5026422;28;20212;-79
2023/01/07 01:21:40;;;;;;;10.50;6.80;;;;;;;;;;5025791;28;20582;-79
2023/01/07 01:24:06;;;;;;;9.00;7.23;;;;;;;;;;5029176;28;20194;-78
2023/01/07 01:26:31;;;;;;;7.83;6.70;;;;;;;;;;5031720;28;20185;-79
2023/01/07 01:28:56;;;;;;;7.97;6.40;;;;;;;;;;5030700;28;20177;-79
2023/01/07 01:31:21;;;;;;;8.27;7.10;;;;;;;;;;5028145;28;20174;-77
2023/01/07 01:33:47;;;;;;;10.43;8.47;;;;;;;;;;5029827;28;20195;-77
2023/01/07 01:36:12;;;;;;;8.17;6.83;;;;;;;;;;5027954;28;20226;-77
2023/01/07 01:38:38;;;;;;;8.07;6.80;;;;;;;;;;5020784;28;20193;-77
2023/01/07 01:41:03;;;;;;;7.60;6.80;;;;;;;;;;5027583;28;20289;-77
2023/01/07 01:43:28;;;;;;;10.47;6.50;;;;;;;;;;5030071;28;20190;-77
2023/01/07 01:45:54;;;;;;;10.07;6.97;;;;;;;;;;5023775;28;20181;-77
2023/01/07 01:48:19;;;;;;;10.10;7.57;;;;;;;;;;5028409;28;20205;-79
2023/01/07 01:50:45;;;;;;;8.37;6.80;;;;;;;;;;5029935;28;20185;-77
2023/01/07 01:53:17;;;;;;;8.87;6.07;;;;;;;;;;5030702;28;20190;-77
2023/01/07 01:55:44;;;;;;;8.73;7.27;;;;;;;;;;5027414;28;20178;-77
2023/01/07 01:58:13;;;;;;;9.80;7.20;;;;;;;;;;5021748;28;20206;-79
2023/01/07 02:00:38;;;;;;;11.23;7.30;;;;;;;;;;5026704;28;20171;-79
2023/01/07 02:03:05;;;;;;;9.40;8.27;;;;;;;;;;5022818;28;20732;-79
2023/01/07 02:05:31;;;;;;;12.10;7.53;;;;;;;;;;5026371;28;20174;-79
2023/01/07 02:07:57;;;;;;;8.80;7.20;;;;;;;;;;5020684;28;20179;-79
2023/01/07 02:10:23;;;;;;;8.70;7.20;;;;;;;;;;5029398;28;20178;-79
2023/01/07 02:12:48;;;;;;;9.73;6.97;;;;;;;;;;5029472;28;20240;-80
2023/01/07 02:15:17;;;;;;;9.57;7.90;;;;;;;;;;5028434;28;20174;-78
2023/01/07 02:17:48;;;;;;;9.60;7.67;;;;;;;;;;5024728;28;20210;-77
2023/01/07 02:20:26;;;;;;;9.03;7.40;;;;;;;;;;5022201;28;20554;-80
2023/01/07 02:23:09;;;;;;;8.77;7.10;;;;;;;;;;5028129;28;20702;-77
2023/01/07 02:25:47;;;;;;;13.77;7.93;;;;;;;;;;5024449;28;20183;-77
2023/01/07 02:28:31;;;;;;;10.23;8.27;;;;;;;;;;5030170;28;20177;-77
2023/01/07 02:31:13;;;;;;;10.60;7.13;;;;;;;;;;5027194;28;20643;-77
2023/01/07 02:33:51;;;;;;;9.93;7.13;;;;;;;;;;5011923;28;20333;-79
2023/01/07 02:36:36;;;;;;;10.07;7.20;;;;;;;;;;5026959;28;20198;-79
2023/01/07 02:39:11;;;;;;;9.47;7.40;;;;;;;;;;5025837;28;20277;-79
2023/01/07 02:41:39;;;;;;;13.83;8.13;;;;;;;;;;5029813;28;20247;-78
2023/01/07 02:44:07;;;;;;;10.43;7.13;;;;;;;;;;5031782;28;20244;-79
2023/01/07 02:46:39;;;;;;;10.63;6.40;;;;;;;;;;5023004;28;20183;-79
2023/01/07 02:49:07;;;;;;;9.20;6.40;;;;;;;;;;5031223;28;20171;-79
2023/01/07 02:51:33;;;;;;;10.60;6.77;;;;;;;;;;5029514;28;20277;-79
2023/01/07 02:53:59;;;;;;;9.53;6.47;;;;;;;;;;5023565;28;20221;-79
2023/01/07 02:56:24;;;;;;;9.33;6.93;;;;;;;;;;5031378;28;20206;-79
2023/01/07 02:58:52;;;;;;;7.67;6.20;;;;;;;;;;5023837;28;20171;-77
2023/01/07 03:01:36;;;;;;;11.10;6.40;;;;;;;;;;5023246;28;20202;-80
2023/01/07 03:04:07;;;;;;;14.57;6.73;;;;;;;;;;5027308;28;20193;-78
2023/01/07 03:06:32;;;;;;;11.00;7.07;;;;;;;;;;5030423;28;20543;-78
2023/01/07 03:09:23;;;;;;;7.80;6.17;;;;;;;;;;5035423;28;20182;-79
2023/01/07 03:12:04;;;;;;;10.63;6.40;;;;;;;;;;5005494;28;20195;-80
2023/01/07 03:14:56;;;;;;;8.37;6.70;;;;;;;;;;5029034;28;20210;-79
2023/01/07 03:17:24;;;;;;;12.53;6.30;;;;;;;;;;5033072;28;20198;-79
2023/01/07 03:19:54;;;;;;;11.33;7.07;;;;;;;;;;5030737;28;20194;-79
2023/01/07 03:22:21;;;;;;;10.03;6.17;;;;;;;;;;5033888;28;20178;-80
2023/01/07 03:24:47;;;;;;;7.93;6.47;;;;;;;;;;5032615;28;20194;-77
2023/01/07 03:27:13;;;;;;;12.13;6.80;;;;;;;;;;5030003;28;20281;-79
2023/01/07 03:29:38;;;;;;;10.63;6.13;;;;;;;;;;5028798;28;20202;-79
2023/01/07 03:32:06;;;;;;;9.27;5.87;;;;;;;;;;5027865;28;20229;-79
2023/01/07 03:34:32;;;;;;;10.67;7.30;;;;;;;;;;5034084;28;20209;-79
2023/01/07 03:37:08;;;;;;;10.57;6.33;;;;;;;;;;5033476;28;20194;-78
2023/01/07 03:39:34;;;;;;;9.23;5.90;;;;;;;;;;5031474;28;20538;-78
2023/01/07 03:44:46;;;;;;;11.57;6.23;;;;;;;;;;5024956;28;20205;-79
2023/01/07 03:47:11;;;;;;;9.30;5.70;;;;;;;;;;5027128;28;20174;-79
2023/01/07 03:49:37;;;;;;;12.60;7.73;;;;;;;;;;5031850;28;20181;-79
2023/01/07 03:52:02;;;;;;;11.27;6.27;;;;;;;;;;5033546;28;20371;-79
2023/01/07 03:54:27;;;;;;;12.23;7.07;;;;;;;;;;5020163;28;20319;-79
2023/01/07 03:56:52;;;;;;;9.90;7.17;;;;;;;;;;5026731;28;20209;-80
2023/01/07 03:59:17;;;;;;;10.57;5.57;;;;;;;;;;5031713;28;20175;-79
2023/01/07 04:01:43;;;;;;;14.67;6.37;;;;;;;;;;5033887;28;20198;-79
2023/01/07 04:04:08;;;;;;;11.30;6.00;;;;;;;;;;5033126;28;20225;-79
2023/01/07 04:06:33;;;;;;;11.63;6.73;;;;;;;;;;5029532;28;20174;-79
2023/01/07 04:08:58;;;;;;;9.13;6.37;;;;;;;;;;5027696;28;20185;-79
2023/01/07 04:11:24;;;;;;;13.93;7.43;;;;;;;;;;5019429;28;20186;-79
2023/01/07 04:13:49;;;;;;;11.60;7.20;;;;;;;;;;5030767;28;20249;-79
2023/01/07 04:16:14;;;;;;;14.80;7.00;;;;;;;;;;5031209;28;20610;-79
2023/01/07 04:18:39;;;;;;;11.33;6.77;;;;;;;;;;5029473;28;20815;-80
2023/01/07 04:21:04;;;;;;;9.40;6.37;;;;;;;;;;5034408;28;20174;-79
2023/01/07 04:23:30;;;;;;;10.20;6.70;;;;;;;;;;5034574;28;20194;-79
2023/01/07 04:25:55;;;;;;;10.40;6.60;;;;;;;;;;5034015;28;20218;-79
2023/01/07 04:28:20;;;;;;;7.57;5.53;;;;;;;;;;5027218;28;20269;-80
2023/01/07 04:30:45;;;;;;;12.00;7.00;;;;;;;;;;5027964;28;20178;-80
2023/01/07 04:33:11;;;;;;;8.90;6.03;;;;;;;;;;5020317;28;20611;-79
2023/01/07 04:35:37;;;;;;;11.27;6.20;;;;;;;;;;5034726;28;20193;-79
2023/01/07 04:38:02;;;;;;;8.50;6.70;;;;;;;;;;5034255;28;20166;-80
2023/01/07 04:40:28;;;;;;;8.77;6.57;;;;;;;;;;5031083;28;20216;-79
2023/01/07 04:42:53;;;;;;;14.60;6.00;;;;;;;;;;5030995;28;20565;-82
2023/01/07 04:45:18;;;;;;;12.40;7.47;;;;;;;;;;5032038;28;20257;-81
2023/01/07 04:47:43;;;;;;;9.13;5.93;;;;;;;;;;5023877;28;20538;-79
2023/01/07 04:50:08;;;;;;;10.50;6.53;;;;;;;;;;5031566;28;20175;-78
2023/01/07 04:52:34;;;;;;;10.00;5.97;;;;;;;;;;5027650;28;20225;-80
2023/01/07 04:54:59;;;;;;;9.93;6.30;;;;;;;;;;5027543;28;20178;-80
2023/01/07 04:57:24;;;;;;;10.03;6.20;;;;;;;;;;5030311;28;20774;-80
2023/01/07 04:59:49;;;;;;;9.13;6.57;;;;;;;;;;5021705;28;20197;-79
2023/01/07 05:02:15;;;;;;;7.10;5.83;;;;;;;;;;5025555;28;20241;-80
2023/01/07 05:04:40;;;;;;;8.00;6.27;;;;;;;;;;5033524;28;20684;-79
2023/01/07 05:07:05;;;;;;;7.30;5.67;;;;;;;;;;5029323;28;20265;-80
2023/01/07 05:09:30;;;;;;;9.07;6.30;;;;;;;;;;5033832;28;20568;-80
2023/01/07 05:11:55;;;;;;;8.50;5.27;;;;;;;;;;5031679;28;20178;-79
2023/01/07 05:14:21;;;;;;;12.17;6.67;;;;;;;;;;5023852;28;20285;-80
2023/01/07 05:16:46;;;;;;;8.43;5.63;;;;;;;;;;5027767;28;20200;-80
2023/01/07 05:19:11;;;;;;;8.37;5.60;;;;;;;;;;5032142;28;20182;-80
2023/01/07 05:21:36;;;;;;;11.17;5.80;;;;;;;;;;5031658;28;20613;-79
2023/01/07 05:24:02;;;;;;;7.83;5.27;;;;;;;;;;5031540;28;20627;-80
2023/01/07 05:26:27;;;;;;;7.90;5.57;;;;;;;;;;5024309;28;20644;-79
2023/01/07 05:28:52;;;;;;;7.30;5.83;;;;;;;;;;5016898;28;20210;-79
2023/01/07 05:31:19;;;;;;;5.87;4.97;;;;;;;;;;5024820;28;20167;-79
2023/01/07 05:33:44;;;;;;;7.37;5.20;;;;;;;;;;5026122;28;20186;-79
2023/01/07 05:36:09;;;;;;;10.47;4.90;;;;;;;;;;5033852;28;20284;-79
2023/01/07 05:38:35;;;;;;;6.33;5.07;;;;;;;;;;5036240;28;20186;-80
2023/01/07 05:41:00;;;;;;;6.67;5.57;;;;;;;;;;5033817;28;20223;-79
2023/01/07 05:43:25;;;;;;;7.60;4.40;;;;;;;;;;5029570;28;20198;-79
2023/01/07 05:45:50;;;;;;;6.53;4.53;;;;;;;;;;5023087;28;20235;-80
2023/01/07 05:48:15;;;;;;;7.57;4.60;;;;;;;;;;5024791;28;20578;-79
2023/01/07 05:50:41;;;;;;;6.33;4.93;;;;;;;;;;5021128;28;20170;-79
2023/01/07 05:53:06;;;;;;;9.03;5.30;;;;;;;;;;5023583;28;20609;-79
2023/01/07 05:55:31;;;;;;;5.10;4.40;;;;;;;;;;5027416;28;20189;-79
2023/01/07 05:57:56;;;;;;;6.17;4.60;;;;;;;;;;5025600;28;20201;-79
2023/01/07 06:00:21;;;;;;;6.53;4.77;;;;;;;;;;5022326;28;20196;-79
2023/01/07 06:02:47;;;;;;;5.87;4.17;;;;;;;;;;5022920;28;20198;-79
2023/01/07 06:05:12;;;;;;;6.83;5.63;;;;;;;;;;5029389;28;20591;-79
2023/01/07 06:07:37;;;;;;;5.63;4.17;;;;;;;;;;5022419;28;20182;-79
2023/01/07 06:10:03;;;;;;;5.83;4.20;;;;;;;;;;5025735;28;20190;-80
2023/01/07 06:12:28;;;;;;;7.60;4.43;;;;;;;;;;5025632;28;20217;-79
2023/01/07 06:14:53;;;;;;;7.20;4.10;;;;;;;;;;5027702;28;20740;-80
2023/01/07 06:17:18;;;;;;;9.13;4.20;;;;;;;;;;5028839;28;20259;-79
2023/01/07 06:19:44;;;;;;;7.33;4.53;;;;;;;;;;5024828;28;20182;-79
2023/01/07 06:22:09;;;;;;;6.37;4.37;;;;;;;;;;5025756;28;20559;-79
2023/01/07 06:24:35;;;;;;;5.77;4.27;;;;;;;;;;5030756;28;20194;-79
2023/01/07 06:27:00;;;;;;;5.90;3.93;;;;;;;;;;5028333;28;20557;-79
2023/01/07 06:29:25;;;;;;;5.90;3.53;;;;;;;;;;5025181;28;20644;-80
2023/01/07 06:31:50;;;;;;;5.80;4.00;;;;;;;;;;5028433;28;20236;-78
2023/01/07 06:34:15;;;;;;;5.13;4.03;;;;;;;;;;5025362;28;20241;-77
2023/01/07 06:36:41;;;;;;;8.17;3.40;;;;;;;;;;5025901;28;20191;-80
2023/01/07 06:39:06;;;;;;;8.70;3.40;;;;;;;;;;5028780;28;20638;-80
2023/01/07 06:41:31;;;;;;;6.57;4.17;;;;;;;;;;5032587;28;20189;-79
2023/01/07 06:43:56;;;;;;;5.60;4.07;;;;;;;;;;5029315;28;20210;-80
2023/01/07 06:46:21;;;;;;;6.93;3.60;;;;;;;;;;5032469;28;20569;-79
2023/01/07 06:48:46;;;;;;;4.73;3.30;;;;;;;;;;5031871;28;20190;-79
2023/01/07 06:51:12;;;;;;;10.33;3.60;;;;;;;;;;5028219;28;20189;-80
2023/01/07 06:53:37;;;;;;;5.27;3.33;;;;;;;;;;5035881;28;20238;-79
2023/01/07 06:56:02;;;;;;;5.47;3.00;;;;;;;;;;5028300;28;20209;-79
2023/01/07 06:58:27;;;;;;;4.37;3.47;;;;;;;;;;5027336;28;20656;-79
2023/01/07 07:00:53;;;;;;;6.57;3.27;;;;;;;;;;5029718;28;20178;-79
2023/01/07 07:03:18;;;;;;;4.10;2.70;;;;;;;;;;5028593;28;20198;-78
2023/01/07 07:05:43;;;;;;;4.23;3.00;;;;;;;;;;5027012;28;20171;-79
2023/01/07 07:08:08;;;;;;;4.07;3.00;;;;;;;;;;5029200;28;20698;-79
2023/01/07 07:10:34;;;;;;;2.70;2.43;;;;;;;;;;5032119;28;20171;-79
2023/01/07 07:12:59;;;;;;;3.73;2.40;;;;;;;;;;5031163;28;20207;-79
2023/01/07 07:15:24;;;;;;;5.13;2.83;;;;;;;;;;5031487;28;20232;-80
2023/01/07 07:17:50;;;;;;;2.90;2.47;;;;;;;;;;5027160;28;20383;-80
2023/01/07 07:20:15;;;;;;;4.03;1.80;;;;;;;;;;5032843;28;20190;-79
2023/01/07 07:22:44;;;;;;;3.87;2.10;;;;;;;;;;5026132;28;20182;-79
2023/01/07 07:25:09;;;;;;;2.53;2.10;;;;;;;;;;5031905;28;20182;-79
2023/01/07 07:27:34;;;;;;;2.87;2.40;;;;;;;;;;5034744;28;20191;-80
2023/01/07 07:29:59;;;;;;;5.00;2.10;;;;;;;;;;5030366;28;20571;-80
2023/01/07 07:32:27;;;;;;;2.87;2.10;;;;;;;;;;5031813;28;20186;-80
2023/01/07 07:34:52;;;;;;;3.63;1.70;;;;;;;;;;5025650;28;20261;-80
2023/01/07 07:37:17;;;;;;;5.20;2.17;;;;;;;;;;5033845;28;20707;-80
2023/01/07 07:39:42;;;;;;;4.50;2.03;;;;;;;;;;5034989;28;20178;-79
2023/01/07 07:42:08;;;;;;;1.77;1.53;;;;;;;;;;5032024;28;20170;-79
2023/01/07 07:44:33;;;;;;;3.90;2.33;;;;;;;;;;5032187;28;20611;-79
2023/01/07 07:46:58;;;;;;;3.37;1.93;;;;;;;;;;5025890;28;20644;-79
2023/01/07 07:49:23;;;;;;;1.90;1.57;;;;;;;;;;5033457;28;20213;-79
2023/01/07 07:51:48;;;;;;;7.67;1.80;;;;;;;;;;5030896;28;20185;-79
2023/01/07 07:54:14;;;;;;;3.07;1.57;;;;;;;;;;5026854;28;20228;-79
2023/01/07 07:56:39;;;;;;;4.43;2.07;;;;;;;;;;5029663;28;20194;-79
2023/01/07 07:59:04;;;;;;;5.33;1.63;;;;;;;;;;5022790;28;20230;-80
2023/01/07 08:01:29;;;;;;;6.77;2.83;;;;;;;;;;5017690;28;20189;-79
2023/01/07 08:03:54;;;;;;;2.37;1.47;;;;;;;;;;5022611;28;20194;-79
2023/01/07 08:06:19;;;;;;;2.97;1.50;;;;;;;;;;5035341;28;20644;-80
2023/01/07 08:08:45;;;;;;;2.50;1.47;;;;;;;;;;5031911;28;20166;-79
2023/01/07 08:11:10;;;;;;;1.70;1.33;;;;;;;;;;5027706;28;20175;-79
2023/01/07 08:13:35;;;;;;;1.40;1.10;;;;;;;;;;5047476;28;20279;-80
2023/01/07 08:16:00;;;;;;;2.73;1.70;;;;;;;;;;5034667;28;20202;-80
2023/01/07 08:18:25;;;;;;;3.83;1.70;;;;;;;;;;5031851;28;20174;-80
2023/01/07 08:20:51;;;;;;;3.03;1.40;;;;;;;;;;5033589;28;20178;-80
2023/01/07 08:23:16;;;;;;;1.73;1.27;;;;;;;;;;5029831;28;20217;-79
2023/01/07 08:25:41;;;;;;;2.03;1.40;;;;;;;;;;5020667;28;20235;-79
2023/01/07 08:28:08;;;;;;;1.67;1.30;;;;;;;;;;5039659;28;20173;-79
2023/01/07 08:30:33;;;;;;;2.03;1.40;;;;;;;;;;5039429;28;20201;-79
2023/01/07 08:32:58;;;;;;;3.87;1.57;;;;;;;;;;5027931;28;20687;-79
2023/01/07 08:35:24;;;;;;;1.77;1.40;;;;;;;;;;5032438;28;20182;-80
2023/01/07 08:37:49;;;;;;;2.57;1.10;;;;;;;;;;5025511;28;20191;-80
2023/01/07 08:40:14;;;;;;;2.20;1.27;;;;;;;;;;5034901;28;20287;-79
2023/01/07 08:42:39;;;;;;;1.70;1.40;;;;;;;;;;5034137;28;20175;-80
2023/01/07 08:45:06;;;;;;;3.03;1.30;;;;;;;;;;5033595;28;20204;-80
2023/01/07 08:47:31;;;;;;;1.50;1.30;;;;;;;;;;5033899;28;20577;-80
2023/01/07 08:49:56;;;;;;;2.33;1.67;;;;;;;;;;5034050;28;20182;-80
2023/01/07 08:52:22;;;;;;;1.40;1.10;;;;;;;;;;5028656;28;20185;-80
2023/01/07 08:54:48;;;;;;;2.33;1.30;;;;;;;;;;5024385;28;20195;-80
2023/01/07 08:57:13;;;;;;;2.73;1.57;;;;;;;;;;5031666;28;20612;-79
2023/01/07 08:59:39;;;;;;;1.60;1.17;;;;;;;;;;5030270;28;20636;-80
2023/01/07 09:02:05;;;;;;;1.90;1.10;;;;;;;;;;5031296;28;20580;-78
2023/01/07 09:04:30;;;;;;;4.43;1.17;;;;;;;;;;5024445;28;20251;-80
2023/01/07 09:06:56;;;;;;;1.77;1.37;;;;;;;;;;5032507;28;20182;-79
2023/01/07 09:09:21;;;;;;;1.80;1.00;;;;;;;;;;5027420;28;20550;-79
2023/01/07 09:11:46;;;;;;;2.30;1.37;;;;;;;;;;5025498;28;20174;-79
2023/01/07 09:14:11;;;;;;;2.93;1.37;;;;;;;;;;5030151;28;20218;-79
2023/01/07 09:16:37;;;;;;;1.13;1.00;;;;;;;;;;5032191;28;20277;-79
2023/01/07 09:19:02;;;;;;;4.27;1.00;;;;;;;;;;5028348;28;20617;-79
2023/01/07 09:21:27;;;;;;;1.20;1.10;;;;;;;;;;5031177;28;20295;-79
2023/01/07 09:23:52;;;;;;;2.97;1.17;;;;;;;;;;5027705;28;20771;-79
2023/01/07 09:26:17;;;;;;;3.63;1.27;;;;;;;;;;5030592;28;20171;-79
2023/01/07 09:28:42;;;;;;;1.10;1.00;;;;;;;;;;5030632;28;20175;-79
2023/01/07 09:31:08;;;;;;;0.90;0.87;;;;;;;;;;5030837;28;20668;-79
2023/01/07 09:33:33;;;;;;;1.40;1.00;;;;;;;;;;5031923;28;20198;-79
2023/01/07 09:35:58;;;;;;;1.70;0.80;;;;;;;;;;5029788;28;20325;-79
2023/01/07 09:38:24;;;;;;;1.37;1.03;;;;;;;;;;5027969;28;20185;-79
2023/01/07 09:40:49;;;;;;;6.20;2.07;;;;;;;;;;5020672;28;20174;-80
2023/01/07 09:43:17;;;;;;;2.07;1.10;;;;;;;;;;5031826;28;20189;-80
2023/01/07 09:45:51;;;;;;;2.00;1.00;;;;;;;;;;5031443;28;20175;-79
2023/01/07 09:48:25;;;;;;;1.00;0.77;;;;;;;;;;5024166;28;20181;-79
2023/01/07 09:50:50;;;;;;;0.93;0.80;;;;;;;;;;5025347;28;20708;-79
2023/01/07 09:53:25;;;;;;;3.23;1.10;;;;;;;;;;5024858;28;20198;-79
2023/01/07 09:55:51;;;;;;;1.57;0.90;;;;;;;;;;5027229;28;20174;-79
2023/01/07 09:58:18;;;;;;;1.50;1.00;;;;;;;;;;5027282;28;20170;-79
2023/01/07 10:00:53;;;;;;;2.33;0.83;;;;;;;;;;5030108;28;20257;-79
2023/01/07 10:03:31;;;;;;;1.73;1.03;;;;;;;;;;5025084;28;20194;-79
2023/01/07 10:06:00;;;;;;;1.07;0.77;;;;;;;;;;5023082;28;20235;-79
2023/01/07 10:08:28;;;;;;;1.00;0.88;;;;;;;;;;5026594;28;20179;-79
2023/01/07 10:10:53;;;;;;;1.17;0.87;;;;;;;;;;5030197;28;20550;-79
2023/01/07 10:13:31;;;;;;;1.23;1.00;;;;;;;;;;5030314;28;20759;-79
2023/01/07 10:16:07;;;;;;;1.13;0.80;;;;;;;;;;5034285;28;20174;-79
2023/01/07 10:18:42;;;;;;;0.85;0.68;;;;;;;;;;5033132;28;20660;-79
2023/01/07 10:21:24;;;;;;;4.50;2.25;;;;;;;;;;5030681;28;20264;-79
2023/01/07 10:23:54;;;;;;;0.80;0.77;;;;;;;;;;5034637;28;20277;-78
2023/01/07 10:26:34;;;;;;;1.25;0.82;;;;;;;;;;5033913;28;20553;-80
2023/01/07 10:29:05;;;;;;;1.45;1.00;;;;;;;;;;5033231;28;20226;-80
2023/01/07 10:31:31;;;;;;;1.38;1.00;;;;;;;;;;5030732;28;20186;-80
2023/01/07 10:33:56;;;;;;;1.13;0.80;;;;;;;;;;5033468;28;20209;-77
2023/01/07 10:36:21;;;;;;;1.17;0.85;;;;;;;;;;5032413;28;20214;-79
2023/01/07 10:38:54;;;;;;;4.13;0.82;;;;;;;;;;5032464;28;20206;-80
2023/01/07 10:41:27;;;;;;;1.33;0.93;;;;;;;;;;5031610;28;20212;-79
2023/01/07 10:44:07;;;;;;;1.50;1.30;;;;;;;;;;5035165;28;20624;-80
2023/01/07 10:46:40;;;;;;;2.38;0.80;;;;;;;;;;5030442;28;20595;-80
2023/01/07 10:49:14;;;;;;;1.83;1.02;;;;;;;;;;5031868;28;20563;-77
2023/01/07 10:51:42;;;;;;;1.38;0.70;;;;;;;;;;5024596;28;20177;-80
2023/01/07 10:54:11;;;;;;;1.98;0.70;;;;;;;;;;5027980;28;20186;-79
2023/01/07 10:56:45;;;;;;;1.83;1.02;;;;;;;;;;5028139;28;20206;-79
2023/01/07 10:59:13;;;;;;;0.90;0.70;;;;;;;;;;5027823;28;20162;-79
2023/01/07 11:01:39;;;;;;;1.17;0.98;;;;;;;;;;5020876;28;20228;-79
2023/01/07 11:04:12;;;;;;;1.60;0.98;;;;;;;;;;5024096;28;20548;-79
2023/01/07 11:06:44;;;;;;;2.13;0.98;;;;;;;;;;5028328;28;20178;-79
2023/01/07 11:09:12;;;;;;;2.60;0.90;;;;;;;;;;5026533;28;20716;-80
2023/01/07 11:11:38;;;;;;;1.45;0.52;;;;;;;;;;5026712;28;20187;-79
2023/01/07 11:14:07;;;;;;;1.05;0.77;;;;;;;;;;5019861;28;20218;-77
2023/01/07 11:16:38;;;;;;;1.75;1.23;;;;;;;;;;5029166;28;20198;-79
2023/01/07 11:19:08;;;;;;;0.55;0.52;;;;;;;;;;5021619;28;20175;-79
2023/01/07 11:21:40;;;;;;;0.90;0.70;;;;;;;;;;5029561;28;20503;-79
2023/01/07 11:24:35;;;;;;;0.95;0.75;;;;;;;;;;5025256;28;20224;-79
2023/01/07 11:27:03;;;;;;;0.52;0.52;;;;;;;;;;5027008;28;20267;-77
2023/01/07 11:29:34;;;;;;;0.85;0.70;;;;;;;;;;5030382;28;20182;-77
2023/01/07 11:32:02;;;;;;;1.20;0.93;;;;;;;;;;5031688;28;20705;-78
2023/01/07 11:34:33;;;;;;;1.20;0.90;;;;;;;;;;5021797;28;20206;-76
2023/01/07 11:36:59;;;;;;;1.75;1.48;;;;;;;;;;5024888;28;20734;-76
2023/01/07 11:39:31;;;;;;;1.02;0.80;;;;;;;;;;5018883;28;20245;-76
2023/01/07 11:41:58;;;;;;;0.52;0.50;;;;;;;;;;5027137;28;20175;-76
2023/01/07 11:44:23;;;;;;;1.10;0.70;;;;;;;;;;5028036;28;20186;-76
2023/01/07 11:46:48;;;;;;;1.60;0.90;;;;;;;;;;5026020;28;20670;-76
2023/01/07 11:49:25;;;;;;;2.53;0.85;;;;;;;;;;5033048;28;20675;-76
2023/01/07 11:51:51;;;;;;;2.58;1.00;;;;;;;;;;5025849;28;20182;-77
2023/01/07 11:54:19;;;;;;;1.70;0.90;;;;;;;;;;5027529;28;20220;-76
2023/01/07 11:56:44;;;;;;;1.00;0.65;;;;;;;;;;5022528;28;20194;-76
2023/01/07 11:59:10;;;;;;;0.82;0.70;;;;;;;;;;5022231;28;20609;-78
2023/01/07 12:01:45;;;;;;;1.73;0.83;;;;;;;;;;5020097;28;20183;-78
2023/01/07 12:04:12;;;;;;;1.08;0.80;;;;;;;;;;5019674;28;20963;-78
2023/01/07 12:06:39;;;;;;;0.90;0.70;;;;;;;;;;5015846;28;20591;-77
2023/01/07 12:09:14;;;;;;;1.63;1.02;;;;;;;;;;5023244;28;20273;-78
2023/01/07 12:11:40;;;;;;;1.10;0.60;;;;;;;;;;5023637;28;20170;-77
2023/01/07 12:14:15;;;;;;;2.00;0.80;;;;;;;;;;5020262;28;20237;-77
2023/01/07 12:16:41;;;;;;;1.48;0.93;;;;;;;;;;5023170;28;20217;-77
2023/01/07 12:19:06;;;;;;;0.90;0.80;;;;;;;;;;5025871;28;20175;-77
2023/01/07 12:21:37;;;;;;;1.20;0.82;;;;;;;;;;5027547;28;20241;-77
2023/01/07 12:24:11;;;;;;;2.83;0.85;;;;;;;;;;5022786;28;20202;-75
2023/01/07 12:26:45;;;;;;;1.52;0.90;;;;;;;;;;5028647;28;20600;-78
2023/01/07 12:29:23;;;;;;;0.80;0.75;;;;;;;;;;5026129;28;20269;-76
2023/01/07 12:31:48;;;;;;;1.67;1.13;;;;;;;;;;5022098;28;20197;-78
2023/01/07 12:34:34;;;;;;;1.10;0.93;;;;;;;;;;5029966;28;20675;-76
2023/01/07 12:37:37;;;;;;;1.25;1.13;;;;;;;;;;5009420;28;20218;-76
2023/01/07 12:40:26;;;;;;;1.90;1.20;;;;;;;;;;4985751;28;20170;-76
2023/01/07 12:42:53;;;;;;;1.02;0.93;;;;;;;;;;4990938;28;20199;-76
2023/01/07 12:45:27;;;;;;;1.15;0.90;;;;;;;;;;5018526;28;20194;-78
2023/01/07 12:47:58;;;;;;;1.73;1.25;;;;;;;;;;5025704;28;20277;-78
2023/01/07 12:50:25;;;;;;;1.40;0.90;;;;;;;;;;5028180;28;20170;-78
2023/01/07 12:53:09;;;;;;;2.05;1.10;;;;;;;;;;5031093;28;20200;-77
2023/01/07 12:55:35;;;;;;;1.50;0.93;;;;;;;;;;5026726;28;20261;-77
2023/01/07 12:58:01;;;;;;;2.00;1.50;;;;;;;;;;5022441;28;20197;-78
2023/01/07 13:00:29;;;;;;;2.75;1.20;;;;;;;;;;5022384;28;20174;-77
2023/01/07 13:02:59;;;;;;;1.98;1.00;;;;;;;;;;5021871;28;20194;-77
2023/01/07 13:05:25;;;;;;;1.50;1.08;;;;;;;;;;5026723;28;20178;-77
2023/01/07 13:07:50;;;;;;;1.25;1.02;;;;;;;;;;5023091;28;20193;-76
2023/01/07 13:10:35;;;;;;;1.00;0.88;;;;;;;;;;5025236;28;20486;-77
2023/01/07 13:13:03;;;;;;;1.65;1.17;;;;;;;;;;5024355;28;20213;-77
2023/01/07 13:15:33;;;;;;;1.30;1.20;;;;;;;;;;5003067;22;20326;-72
2023/01/07 13:18:07;;;;;;;1.30;1.02;;;;;;;;;;4983258;28;20222;-73
2023/01/07 13:20:32;;;;;;;2.17;1.30;;;;;;;;;;4982223;28;20215;-72
2023/01/07 13:22:58;;;;;;;1.20;1.10;;;;;;;;;;4987853;28;20211;-72
2023/01/07 13:25:45;;;;;;;1.10;1.00;;;;;;;;;;4985647;28;20556;-72
2023/01/07 13:28:10;;;;;;;1.73;1.20;;;;;;;;;;4987261;28;20171;-72
2023/01/07 13:30:35;;;;;;;0.85;0.85;;;;;;;;;;4983685;28;20183;-72
2023/01/07 13:33:16;;;;;;;2.70;1.48;;;;;;;;;;4984401;28;20717;-72
2023/01/07 13:35:45;;;;;;;3.92;1.58;;;;;;;;;;4985586;28;20203;-72
2023/01/07 13:38:20;;;;;;;1.15;0.90;;;;;;;;;;4990384;28;20231;-72
2023/01/07 13:40:49;;;;;;;1.33;1.23;;;;;;;;;;4986962;28;20246;-72
2023/01/07 13:43:33;;;;;;;1.05;0.95;;;;;;;;;;4987708;28;20183;-72
2023/01/07 13:46:01;;;;;;;1.55;1.17;;;;;;;;;;4985423;28;20186;-72
2023/01/07 13:48:27;;;;;;;1.33;1.20;;;;;;;;;;4988190;28;20274;-72
2023/01/07 13:50:59;;;;;;;1.73;1.50;;;;;;;;;;4994739;28;20274;-72
2023/01/07 13:53:24;;;;;;;2.67;1.20;;;;;;;;;;4978550;28;20188;-72
2023/01/07 13:55:50;;;;;;;1.77;1.40;;;;;;;;;;4985407;28;20711;-72
2023/01/07 13:58:27;;;;;;;1.90;1.35;;;;;;;;;;4985081;28;20222;-72
2023/01/07 14:01:09;;;;;;;1.40;1.30;;;;;;;;;;4983547;28;20172;-72
2023/01/07 14:03:48;;;;;;;1.60;1.15;;;;;;;;;;4987675;28;20756;-72
2023/01/07 14:06:19;;;;;;;0.93;0.82;;;;;;;;;;4986771;28;20645;-72
2023/01/07 14:08:46;;;;;;;1.45;1.35;;;;;;;;;;4985439;28;20930;-72
2023/01/07 14:11:12;;;;;;;1.40;1.30;;;;;;;;;;4987425;28;20204;-72
2023/01/07 14:13:41;;;;;;;1.67;1.13;;;;;;;;;;4987136;28;20669;-72
2023/01/07 14:16:09;;;;;;;3.08;1.20;;;;;;;;;;4993748;28;20705;-72
2023/01/07 14:18:41;;;;;;;1.83;1.20;;;;;;;;;;4983627;28;20266;-72
2023/01/07 14:21:25;;;;;;;1.40;0.98;;;;;;;;;;4984022;28;20395;-72
2023/01/07 14:24:17;;;;;;;1.88;1.20;;;;;;;;;;4989628;28;20211;-72
2023/01/07 14:26:50;;;;;;;1.35;1.25;;;;;;;;;;4988323;28;20188;-72
2023/01/07 14:29:29;;;;;;;2.00;1.48;;;;;;;;;;4987599;28;20194;-72
2023/01/07 14:32:13;;;;;;;1.98;1.40;;;;;;;;;;4985787;28;20233;-72
2023/01/07 14:34:39;;;;;;;1.80;1.10;;;;;;;;;;4982616;28;20208;-72
2023/01/07 14:37:12;;;;;;;2.08;1.58;;;;;;;;;;4983839;28;20265;-72
2023/01/07 14:39:38;;;;;;;1.23;1.13;;;;;;;;;;4979648;28;20250;-72
2023/01/07 14:42:19;;;;;;;2.25;1.42;;;;;;;;;;4989657;28;20550;-72
2023/01/07 14:44:44;;;;;;;2.05;1.20;;;;;;;;;;4987411;28;20257;-72
2023/01/07 14:47:10;;;;;;;1.10;0.98;;;;;;;;;;4978620;28;20185;-72
2023/01/07 14:49:38;;;;;;;2.10;1.52;;;;;;;;;;4987475;28;20179;-72